createdAt,value
2023-04-05T00:01:58.558Z,18.17
2023-04-05T00:04:25.766Z,19.45
2023-04-05T00:06:53.936Z,17.20
2023-04-05T00:09:21.319Z,17.73
2023-04-05T00:11:48.650Z,20.15
2023-04-05T00:14:15.982Z,19.13
2023-04-05T00:16:43.363Z,21.98
2023-04-05T00:19:12.317Z,20.80
2023-04-05T00:21:40.291Z,21.92
2023-04-05T00:24:08.044Z,20.23
2023-04-05T00:26:36.384Z,21.67
2023-04-05T00:29:03.464Z,19.08
2023-04-05T00:31:30.935Z,22.13
2023-04-05T00:33:58.202Z,20.15
2023-04-05T00:36:26.289Z,19.95
2023-04-05T00:38:53.347Z,21.45
2023-04-05T00:41:20.480Z,24.15
2023-04-05T00:43:47.684Z,22.20
2023-04-05T00:46:14.838Z,20.73
2023-04-05T00:48:42.043Z,22.10
2023-04-05T00:51:11.660Z,20.98
2023-04-05T00:53:38.783Z,21.27
2023-04-05T00:56:05.965Z,23.23
2023-04-05T00:58:33.815Z,20.13
2023-04-05T01:01:13.723Z,22.70
2023-04-05T01:03:43.705Z,20.70
2023-04-05T01:06:30.095Z,21.00
2023-04-05T01:09:12.743Z,21.98
2023-04-05T01:11:40.563Z,19.63
2023-04-05T01:14:07.639Z,22.98
2023-04-05T01:16:34.856Z,21.00
2023-04-05T01:19:03.867Z,19.58
2023-04-05T01:21:34.068Z,19.83
2023-04-05T01:24:14.768Z,23.27
2023-04-05T01:26:51.012Z,20.00
2023-04-05T01:29:18.060Z,20.20
2023-04-05T01:31:48.094Z,19.63
2023-04-05T01:34:24.060Z,18.00
2023-04-05T01:36:55.132Z,19.00
2023-04-05T01:39:22.391Z,19.33
2023-04-05T01:41:49.571Z,19.23
2023-04-05T01:44:16.653Z,19.27
2023-04-05T01:46:43.751Z,23.58
2023-04-05T01:49:11.297Z,20.77
2023-04-05T01:51:41.884Z,23.67
2023-04-05T01:54:09.415Z,20.38
2023-04-05T01:56:36.489Z,18.73
2023-04-05T01:59:03.620Z,19.75
2023-04-05T02:01:30.780Z,18.98
2023-04-05T02:03:57.969Z,17.67
2023-04-05T02:06:25.032Z,18.88
2023-04-05T02:08:52.045Z,18.45
2023-04-05T02:11:19.106Z,18.85
2023-04-05T02:13:46.111Z,19.13
2023-04-05T02:16:13.264Z,20.02
2023-04-05T02:18:40.365Z,17.33
2023-04-05T02:21:10.512Z,18.70
2023-04-05T02:23:38.033Z,20.55
2023-04-05T02:26:05.371Z,19.40
2023-04-05T02:28:32.430Z,17.67
2023-04-05T02:30:59.477Z,15.52
2023-04-05T02:33:27.631Z,17.23
2023-04-05T02:35:54.887Z,19.15
2023-04-05T02:38:21.995Z,16.38
2023-04-05T02:40:50.109Z,18.30
2023-04-05T02:43:17.386Z,17.73
2023-04-05T02:45:46.738Z,18.25
2023-04-05T02:48:14.099Z,18.45
2023-04-05T02:50:41.550Z,15.63
2023-04-05T02:53:09.103Z,17.50
2023-04-05T02:55:36.358Z,15.05
2023-04-05T02:58:03.441Z,16.63
2023-04-05T03:00:30.642Z,17.73
2023-04-05T03:02:57.709Z,18.45
2023-04-05T03:05:24.806Z,18.35
2023-04-05T03:07:52.365Z,18.92
2023-04-05T03:10:22.490Z,21.20
2023-04-05T03:12:51.413Z,19.02
2023-04-05T03:15:18.511Z,20.73
2023-04-05T03:17:45.844Z,18.33
2023-04-05T03:20:13.331Z,20.27
2023-04-05T03:22:41.102Z,21.50
2023-04-05T03:25:08.361Z,19.25
2023-04-05T03:27:36.284Z,19.63
2023-04-05T03:30:03.384Z,18.83
2023-04-05T03:32:30.537Z,21.90
2023-04-05T03:34:57.607Z,19.58
2023-04-05T03:37:24.609Z,21.95
2023-04-05T03:39:51.632Z,18.02
2023-04-05T03:42:18.651Z,19.23
2023-04-05T03:44:45.735Z,19.02
2023-04-05T03:47:13.150Z,19.48
2023-04-05T03:49:40.986Z,23.00
2023-04-05T03:52:09.078Z,19.40
2023-04-05T03:54:36.387Z,20.67
2023-04-05T03:57:03.638Z,18.60
2023-04-05T03:59:31.116Z,17.83
2023-04-05T04:01:58.275Z,19.98
2023-04-05T04:04:25.397Z,27.83
2023-04-05T04:06:52.481Z,18.08
2023-04-05T04:09:19.546Z,20.58
2023-04-05T04:11:46.719Z,18.92
2023-04-05T04:14:13.724Z,18.67
2023-04-05T04:16:40.780Z,19.20
2023-04-05T04:19:07.907Z,24.55
2023-04-05T04:21:35.830Z,33.00
2023-04-05T04:24:02.915Z,23.17
2023-04-05T04:26:30.000Z,22.13
2023-04-05T04:28:57.255Z,21.17
2023-04-05T04:31:24.722Z,23.33
2023-04-05T04:33:51.858Z,19.90
2023-04-05T04:36:26.525Z,19.35
2023-04-05T04:38:54.624Z,23.67
2023-04-05T04:41:22.585Z,21.20
2023-04-05T04:43:49.629Z,24.10
2023-04-05T04:46:19.011Z,26.60
2023-04-05T04:48:47.323Z,22.27
2023-04-05T04:51:14.466Z,22.75
2023-04-05T04:53:41.683Z,22.77
2023-04-05T04:56:09.126Z,19.95
2023-04-05T04:58:36.339Z,19.27
2023-04-05T05:01:09.156Z,24.42
2023-04-05T05:03:39.849Z,19.88
2023-04-05T05:06:07.467Z,23.67
2023-04-05T05:08:35.199Z,22.00
2023-04-05T05:11:02.685Z,18.92
2023-04-05T05:13:29.909Z,22.98
2023-04-05T05:15:57.978Z,20.60
2023-04-05T05:18:25.189Z,18.75
2023-04-05T05:20:52.657Z,21.45
2023-04-05T05:23:21.169Z,19.92
2023-04-05T05:25:48.098Z,20.20
2023-04-05T05:28:14.763Z,22.50
2023-04-05T05:30:41.600Z,17.58
2023-04-05T05:33:08.406Z,18.17
2023-04-05T05:35:35.327Z,23.55
2023-04-05T05:38:02.721Z,18.58
2023-04-05T05:40:29.363Z,16.83
2023-04-05T05:42:56.147Z,18.70
2023-04-05T05:45:22.739Z,18.10
2023-04-05T05:47:49.358Z,18.45
2023-04-05T05:50:17.122Z,17.02
2023-04-05T05:52:43.768Z,16.77
2023-04-05T05:55:10.503Z,15.95
2023-04-05T05:57:38.732Z,20.58
2023-04-05T06:00:09.485Z,17.05
2023-04-05T06:02:36.536Z,15.27
2023-04-05T06:05:03.974Z,17.85
2023-04-05T06:07:30.609Z,16.20
2023-04-05T06:09:57.261Z,22.30
2023-04-05T06:12:23.879Z,17.92
2023-04-05T06:14:50.595Z,16.52
2023-04-05T06:17:17.228Z,17.95
2023-04-05T06:19:43.868Z,20.25
2023-04-05T06:22:10.576Z,18.70
2023-04-05T06:24:37.175Z,13.20
2023-04-05T06:27:03.889Z,17.27
2023-04-05T06:29:31.176Z,16.85
2023-04-05T06:31:58.104Z,19.00
2023-04-05T06:34:24.839Z,15.85
2023-04-05T06:36:51.586Z,18.05
2023-04-05T06:39:18.851Z,15.85
2023-04-05T06:41:45.539Z,15.23
2023-04-05T06:44:12.170Z,16.27
2023-04-05T06:46:38.849Z,15.98
2023-04-05T06:49:05.921Z,15.30
2023-04-05T06:51:32.646Z,16.80
2023-04-05T06:53:59.349Z,14.85
2023-04-05T06:56:26.095Z,14.80
2023-04-05T06:58:53.023Z,16.52
2023-04-05T07:01:19.902Z,16.17
2023-04-05T07:03:46.645Z,18.45
2023-04-05T07:06:13.447Z,14.45
2023-04-05T07:08:40.196Z,14.27
2023-04-05T07:11:06.903Z,15.55
2023-04-05T07:13:33.819Z,18.17
2023-04-05T07:16:01.707Z,17.67
2023-04-05T07:18:29.940Z,18.98
2023-04-05T07:21:00.188Z,15.60
2023-04-05T07:23:27.941Z,15.77
2023-04-05T07:25:55.559Z,14.05
2023-04-05T07:28:22.831Z,14.43
2023-04-05T07:30:50.032Z,15.07
2023-04-05T07:33:17.150Z,15.18
2023-04-05T07:35:44.270Z,17.60
2023-04-05T07:38:11.377Z,14.90
2023-04-05T07:40:38.494Z,14.13
2023-04-05T07:43:05.601Z,15.05
2023-04-05T07:45:32.614Z,16.77
2023-04-05T07:47:59.683Z,17.58
2023-04-05T07:50:27.552Z,17.05
2023-04-05T07:52:54.633Z,14.68
2023-04-05T07:55:21.665Z,12.52
2023-04-05T07:57:48.726Z,12.68
2023-04-05T08:00:15.932Z,14.38
2023-04-05T08:02:43.130Z,16.33
2023-04-05T08:05:10.257Z,17.00
2023-04-05T08:07:37.382Z,11.98
2023-04-05T08:10:05.203Z,13.07
2023-04-05T08:12:32.530Z,13.75
2023-04-05T08:14:59.623Z,15.43
2023-04-05T08:17:28.158Z,14.65
2023-04-05T08:19:55.986Z,17.85
2023-04-05T08:22:23.031Z,15.43
2023-04-05T08:24:50.307Z,18.02
2023-04-05T08:27:18.567Z,17.45
2023-04-05T08:29:45.728Z,15.07
2023-04-05T08:32:12.940Z,12.85
2023-04-05T08:34:40.264Z,14.45
2023-04-05T08:37:07.508Z,15.23
2023-04-05T08:39:37.426Z,15.27
2023-04-05T08:42:06.954Z,14.48
2023-04-05T08:44:37.027Z,12.48
2023-04-05T08:47:04.126Z,17.55
2023-04-05T08:49:31.187Z,16.80
2023-04-05T08:52:01.663Z,15.82
2023-04-05T08:54:28.321Z,14.02
2023-04-05T08:56:57.985Z,14.57
2023-04-05T08:59:25.475Z,15.05
2023-04-05T09:01:53.166Z,13.90
2023-04-05T09:04:24.327Z,12.52
2023-04-05T09:06:52.148Z,11.32
2023-04-05T09:09:21.290Z,13.80
2023-04-05T09:11:48.671Z,19.95
2023-04-05T09:14:16.217Z,12.30
2023-04-05T09:16:43.246Z,13.05
2023-04-05T09:19:10.669Z,13.43
2023-04-05T09:22:00.697Z,14.65
2023-04-05T09:24:34.913Z,13.75
2023-04-05T09:27:05.223Z,13.48
2023-04-05T09:29:32.241Z,13.63
2023-04-05T09:32:00.994Z,12.75
2023-04-05T09:34:28.112Z,10.55
2023-04-05T09:36:55.183Z,14.25
2023-04-05T09:39:28.364Z,12.52
2023-04-05T09:42:15.986Z,13.00
2023-04-05T09:44:52.788Z,16.27
2023-04-05T09:47:20.756Z,13.70
2023-04-05T09:49:47.768Z,13.00
2023-04-05T09:52:34.090Z,12.93
2023-04-05T09:55:02.844Z,25.52
2023-04-05T09:57:30.572Z,13.30
2023-04-05T09:59:57.620Z,12.50
2023-04-05T10:02:25.307Z,12.70
2023-04-05T10:04:52.519Z,11.60
2023-04-05T10:07:20.137Z,16.02
2023-04-05T10:09:48.285Z,13.30
2023-04-05T10:12:33.854Z,12.52
2023-04-05T10:15:00.975Z,10.77
2023-04-05T10:17:40.232Z,12.35
2023-04-05T10:20:14.908Z,11.85
2023-04-05T10:22:57.446Z,12.50
2023-04-05T10:25:36.987Z,15.18
2023-04-05T10:28:11.526Z,16.80
2023-04-05T10:30:45.058Z,11.27
2023-04-05T10:33:23.042Z,10.93
2023-04-05T10:35:56.327Z,13.43
2023-04-05T10:38:30.478Z,12.95
2023-04-05T10:41:10.547Z,16.27
2023-04-05T10:43:38.610Z,14.20
2023-04-05T10:46:06.825Z,11.90
2023-04-05T10:48:54.886Z,14.02
2023-04-05T10:51:26.221Z,13.23
2023-04-05T10:53:53.711Z,11.75
2023-04-05T10:56:22.009Z,14.07
2023-04-05T10:58:50.279Z,14.65
2023-04-05T11:01:18.844Z,12.07
2023-04-05T11:03:49.915Z,12.15
2023-04-05T11:06:31.347Z,15.35
2023-04-05T11:09:00.838Z,12.23
2023-04-05T11:11:27.899Z,11.05
2023-04-05T11:13:57.233Z,11.93
2023-04-05T11:16:38.562Z,15.75
2023-04-05T11:19:05.396Z,12.80
2023-04-05T11:21:32.121Z,11.98
2023-04-05T11:24:03.596Z,12.35
2023-04-05T11:26:48.878Z,15.35
2023-04-05T11:29:16.053Z,11.13
2023-04-05T11:31:59.870Z,12.80
2023-04-05T11:34:26.708Z,13.05
2023-04-05T11:36:53.496Z,12.75
2023-04-05T11:39:21.095Z,11.45
2023-04-05T11:42:07.416Z,12.10
2023-04-05T11:44:41.183Z,14.02
2023-04-05T11:47:09.058Z,12.18
2023-04-05T11:49:36.348Z,15.40
2023-04-05T11:52:14.347Z,11.73
2023-04-05T11:54:47.501Z,14.07
2023-04-05T11:57:18.402Z,12.18
2023-04-05T11:59:45.446Z,12.70
2023-04-05T12:02:12.836Z,11.02
2023-04-05T12:04:40.571Z,14.13
2023-04-05T12:07:19.471Z,13.90
2023-04-05T12:10:04.956Z,15.73
2023-04-05T12:12:40.741Z,10.95
2023-04-05T12:15:10.621Z,14.00
2023-04-05T12:17:40.131Z,12.63
2023-04-05T12:20:07.780Z,14.30
2023-04-05T12:22:36.071Z,12.00
2023-04-05T12:25:03.080Z,14.52
2023-04-05T12:27:30.306Z,13.93
2023-04-05T12:30:18.025Z,11.25
2023-04-05T12:32:48.764Z,13.00
2023-04-05T12:35:21.176Z,9.90
2023-04-05T12:37:50.652Z,15.68
2023-04-05T12:40:22.773Z,11.68
2023-04-05T12:42:49.919Z,16.05
2023-04-05T12:45:18.224Z,13.50
2023-04-05T12:47:58.649Z,11.88
2023-04-05T12:50:30.473Z,11.20
2023-04-05T12:53:04.852Z,11.55
2023-04-05T12:55:32.090Z,11.38
2023-04-05T12:58:03.617Z,13.98
2023-04-05T13:00:30.940Z,12.18
2023-04-05T13:02:59.387Z,13.63
2023-04-05T13:05:30.781Z,12.02
2023-04-05T13:07:58.777Z,12.02
2023-04-05T13:10:25.922Z,12.82
2023-04-05T13:12:52.679Z,13.07
2023-04-05T13:15:19.632Z,13.07
2023-04-05T13:17:49.703Z,14.82
2023-04-05T13:20:18.308Z,12.90
2023-04-05T13:22:46.216Z,15.32
2023-04-05T13:25:13.541Z,17.88
2023-04-05T13:27:40.190Z,11.43
2023-04-05T13:30:07.612Z,13.68
2023-04-05T13:32:34.583Z,12.43
2023-04-05T13:35:01.654Z,16.17
2023-04-05T13:37:28.429Z,14.80
2023-04-05T13:39:55.138Z,9.73
2023-04-05T13:42:23.320Z,11.60
2023-04-05T13:44:50.537Z,11.82
2023-04-05T13:47:17.727Z,15.15
2023-04-05T13:49:44.758Z,11.63
2023-04-05T13:52:12.217Z,10.60
2023-04-05T13:54:39.283Z,12.55
2023-04-05T13:57:06.383Z,13.73
2023-04-05T13:59:33.430Z,16.70
2023-04-05T14:02:00.951Z,14.65
2023-04-05T14:04:28.928Z,10.45
2023-04-05T14:06:56.210Z,11.30
2023-04-05T14:09:22.923Z,9.68
2023-04-05T14:11:49.717Z,14.63
2023-04-05T14:14:16.439Z,11.75
2023-04-05T14:16:43.299Z,12.38
2023-04-05T14:19:10.365Z,15.25
2023-04-05T14:21:37.248Z,15.63
2023-04-05T14:24:04.013Z,10.68
2023-04-05T14:26:31.122Z,14.77
2023-04-05T14:28:58.144Z,11.55
2023-04-05T14:31:27.736Z,10.27
2023-04-05T14:33:54.363Z,12.23
2023-04-05T14:36:21.302Z,10.15
2023-04-05T14:38:48.184Z,10.27
2023-04-05T14:41:14.960Z,11.52
2023-04-05T14:43:41.995Z,12.10
2023-04-05T14:46:08.714Z,11.00
2023-04-05T14:48:35.564Z,15.30
2023-04-05T14:51:02.457Z,12.20
2023-04-05T14:53:29.149Z,11.27
2023-04-05T14:55:55.786Z,10.90
2023-04-05T14:58:22.586Z,14.73
2023-04-05T15:00:50.656Z,9.32
2023-04-05T15:03:19.632Z,11.15
2023-04-05T15:05:47.255Z,10.38
2023-04-05T15:08:14.839Z,10.55
2023-04-05T15:10:45.087Z,12.73
2023-04-05T15:13:12.844Z,10.25
2023-04-05T15:15:39.827Z,10.45
2023-04-05T15:18:08.118Z,11.68
2023-04-05T15:20:35.692Z,12.10
2023-04-05T15:23:02.701Z,10.63
2023-04-05T15:25:29.477Z,11.07
2023-04-05T15:27:59.086Z,11.25
2023-04-05T15:30:27.738Z,12.40
2023-04-05T15:32:55.694Z,10.77
2023-04-05T15:35:22.994Z,9.25
2023-04-05T15:37:50.336Z,10.85
2023-04-05T15:40:17.121Z,11.60
2023-04-05T15:42:43.872Z,11.38
2023-04-05T15:45:11.207Z,12.85
2023-04-05T15:47:38.749Z,11.25
2023-04-05T15:50:06.431Z,10.85
2023-04-05T15:52:34.276Z,11.40
2023-04-05T15:55:01.167Z,11.27
2023-04-05T15:57:27.937Z,9.68
2023-04-05T15:59:54.811Z,13.10
2023-04-05T16:02:21.537Z,11.50
2023-04-05T16:04:48.457Z,11.25
2023-04-05T16:07:15.589Z,12.95
2023-04-05T16:09:42.313Z,10.30
2023-04-05T16:12:09.049Z,12.82
2023-04-05T16:14:35.792Z,10.30
2023-04-05T16:17:02.623Z,11.63
2023-04-05T16:19:29.386Z,11.82
2023-04-05T16:21:56.841Z,10.45
2023-04-05T16:24:23.613Z,10.50
2023-04-05T16:26:50.681Z,19.20
2023-04-05T16:29:18.061Z,20.27
2023-04-05T16:31:47.271Z,11.82
2023-04-05T16:34:14.645Z,11.82
2023-04-05T16:36:41.820Z,9.18
2023-04-05T16:39:08.850Z,10.60
2023-04-05T16:41:38.789Z,9.20
2023-04-05T16:44:06.144Z,10.55
2023-04-05T16:46:33.318Z,13.15
2023-04-05T16:49:01.071Z,14.88
2023-04-05T16:51:28.729Z,12.00
2023-04-05T16:53:56.015Z,11.45
2023-04-05T16:56:24.218Z,13.18
2023-04-05T16:58:51.841Z,13.77
2023-04-05T17:01:18.686Z,14.07
2023-04-05T17:03:47.044Z,12.57
2023-04-05T17:06:14.866Z,11.93
2023-04-05T17:08:42.007Z,11.80
2023-04-05T17:11:08.804Z,14.85
2023-04-05T17:13:35.856Z,12.07
2023-04-05T17:16:03.080Z,10.77
2023-04-05T17:18:29.720Z,12.30
2023-04-05T17:20:56.372Z,13.52
2023-04-05T17:23:24.459Z,12.32
2023-04-05T17:25:51.605Z,12.73
2023-04-05T17:28:18.653Z,11.68
2023-04-05T17:30:45.813Z,14.30
2023-04-05T17:33:12.533Z,13.27
2023-04-05T17:35:39.210Z,11.65
2023-04-05T17:38:06.323Z,12.02
2023-04-05T17:40:33.377Z,10.75
2023-04-05T17:43:00.738Z,14.27
2023-04-05T17:45:28.226Z,11.63
2023-04-05T17:47:54.945Z,12.23
2023-04-05T17:50:24.433Z,14.10
2023-04-05T17:52:51.954Z,10.45
2023-04-05T17:55:19.011Z,12.52
2023-04-05T17:57:46.073Z,15.02
2023-04-05T18:00:13.392Z,19.98
2023-04-05T18:02:41.443Z,14.40
2023-04-05T18:05:10.089Z,12.02
2023-04-05T18:07:39.015Z,13.88
2023-04-05T18:10:06.762Z,11.60
2023-04-05T18:12:34.284Z,17.13
2023-04-05T18:15:01.329Z,22.63
2023-04-05T18:17:28.566Z,15.40
2023-04-05T18:19:55.640Z,13.07
2023-04-05T18:22:22.300Z,15.18
2023-04-05T18:24:48.949Z,24.48
2023-04-05T18:27:15.582Z,30.73
2023-04-05T18:29:42.453Z,18.63
2023-04-05T18:32:09.660Z,12.18
2023-04-05T18:34:36.627Z,21.27
2023-04-05T18:37:03.300Z,23.70
2023-04-05T18:39:29.988Z,17.63
2023-04-05T18:41:56.611Z,13.73
2023-04-05T18:44:23.716Z,21.83
2023-04-05T18:46:50.414Z,16.23
2023-04-05T18:49:18.926Z,15.02
2023-04-05T18:51:46.209Z,21.27
2023-04-05T18:54:13.862Z,16.65
2023-04-05T18:56:41.156Z,16.40
2023-04-05T18:59:08.539Z,19.00
2023-04-05T19:01:36.203Z,14.63
2023-04-05T19:04:05.793Z,17.08
2023-04-05T19:06:32.770Z,18.70
2023-04-05T19:08:59.439Z,14.23
2023-04-05T19:11:26.247Z,20.08
2023-04-05T19:13:54.369Z,16.35
2023-04-05T19:16:21.152Z,14.65
2023-04-05T19:18:47.795Z,18.58
2023-04-05T19:21:14.478Z,19.08
2023-04-05T19:23:41.214Z,16.33
2023-04-05T19:26:07.846Z,19.65
2023-04-05T19:28:34.451Z,20.73
2023-04-05T19:31:01.122Z,25.67
2023-04-05T19:33:31.421Z,15.70
2023-04-05T19:35:58.788Z,24.35
2023-04-05T19:38:25.592Z,18.65
2023-04-05T19:40:52.803Z,22.65
2023-04-05T19:43:19.421Z,14.82
2023-04-05T19:45:48.437Z,14.82
2023-04-05T19:48:44.302Z,13.13
2023-04-05T19:51:14.018Z,13.30
2023-04-05T19:53:51.496Z,17.73
2023-04-05T19:56:21.766Z,16.15
2023-04-05T19:58:58.711Z,16.52
2023-04-05T20:01:36.911Z,19.95
2023-04-05T20:04:16.914Z,14.90
2023-04-05T20:06:51.261Z,18.05
2023-04-05T20:09:18.345Z,19.15
2023-04-05T20:11:51.911Z,16.48
2023-04-05T20:14:24.608Z,16.98
2023-04-05T20:16:51.316Z,16.40
2023-04-05T20:19:28.930Z,13.63
2023-04-05T20:22:01.279Z,15.52
2023-04-05T20:24:29.176Z,13.95
2023-04-05T20:26:56.826Z,13.88
2023-04-05T20:29:28.599Z,17.48
2023-04-05T20:31:55.592Z,18.80
2023-04-05T20:34:32.887Z,19.02
2023-04-05T20:37:03.161Z,14.68
2023-04-05T20:39:30.904Z,13.32
2023-04-05T20:41:58.117Z,17.65
2023-04-05T20:44:25.869Z,14.77
2023-04-05T20:46:54.604Z,15.18
2023-04-05T20:49:22.368Z,15.48
2023-04-05T20:51:50.601Z,13.77
2023-04-05T20:54:18.026Z,17.85
2023-04-05T20:56:46.485Z,18.67
2023-04-05T20:59:16.400Z,15.77
2023-04-05T21:01:51.764Z,16.88
2023-04-05T21:04:18.475Z,16.50
2023-04-05T21:06:45.622Z,14.95
2023-04-05T21:09:12.351Z,16.08
2023-04-05T21:11:38.983Z,19.25
2023-04-05T21:14:05.866Z,17.40
2023-04-05T21:16:32.899Z,17.58
2023-04-05T21:18:59.962Z,15.25
2023-04-05T21:21:27.169Z,17.90
2023-04-05T21:23:54.231Z,17.52
2023-04-05T21:26:21.322Z,19.50
2023-04-05T21:28:48.451Z,20.15
2023-04-05T21:31:15.604Z,18.73
2023-04-05T21:33:42.725Z,17.67
2023-04-05T21:36:09.893Z,16.92
2023-04-05T21:38:37.114Z,18.08
2023-04-05T21:41:03.780Z,20.70
2023-04-05T21:43:30.788Z,17.98
2023-04-05T21:45:57.469Z,18.45
2023-04-05T21:48:24.850Z,19.63
2023-04-05T21:50:51.759Z,18.85
2023-04-05T21:53:18.766Z,23.55
2023-04-05T21:55:45.616Z,21.05
2023-04-05T21:58:12.306Z,17.95
2023-04-05T22:00:38.956Z,19.05
2023-04-05T22:03:05.870Z,28.77
2023-04-05T22:05:37.867Z,19.65
2023-04-05T22:08:06.270Z,21.27
2023-04-05T22:10:33.873Z,22.60
2023-04-05T22:13:01.008Z,20.98
2023-04-05T22:15:27.688Z,23.80
2023-04-05T22:17:54.372Z,23.48
2023-04-05T22:20:21.056Z,20.65
2023-04-05T22:22:47.767Z,22.55
2023-04-05T22:25:14.445Z,20.30
2023-04-05T22:27:41.179Z,21.48
2023-04-05T22:30:08.553Z,21.25
2023-04-05T22:32:36.089Z,20.48
2023-04-05T22:35:04.238Z,19.08
2023-04-05T22:37:35.566Z,22.75
2023-04-05T22:40:03.283Z,23.27
2023-04-05T22:42:30.594Z,19.48
2023-04-05T22:44:57.689Z,22.10
2023-04-05T22:47:24.949Z,24.35
2023-04-05T22:49:52.239Z,19.38
2023-04-05T22:52:19.330Z,24.13
2023-04-05T22:54:46.449Z,19.13
2023-04-05T22:57:13.601Z,20.42
2023-04-05T22:59:40.935Z,22.45
2023-04-05T23:02:08.086Z,21.50
2023-04-05T23:04:35.527Z,20.83
2023-04-05T23:07:02.698Z,19.38
2023-04-05T23:09:29.828Z,18.92
2023-04-05T23:11:56.897Z,20.85
2023-04-05T23:14:24.010Z,19.20
2023-04-05T23:16:51.065Z,20.90
2023-04-05T23:19:18.112Z,23.20
2023-04-05T23:21:45.309Z,19.80
2023-04-05T23:24:12.520Z,21.52
2023-04-05T23:26:39.576Z,19.02
2023-04-05T23:29:06.831Z,18.65
2023-04-05T23:31:34.331Z,21.92
2023-04-05T23:34:01.417Z,19.30
2023-04-05T23:36:28.789Z,18.75
2023-04-05T23:38:58.184Z,20.65
2023-04-05T23:41:25.255Z,24.73
2023-04-05T23:43:52.266Z,20.25
2023-04-05T23:46:19.386Z,18.23
2023-04-05T23:48:46.455Z,19.67
2023-04-05T23:51:13.490Z,20.77
2023-04-05T23:53:40.804Z,18.70
2023-04-05T23:56:08.706Z,16.90
2023-04-05T23:58:36.302Z,22.52
